^^
Grace C. Lehan Memorial Weather Station Historical Data
Daily Summary for June 19, 2021 Units:  Metric    English   Both
Daily Weekly Monthly Yearly
  High: Low: Average:
Temperature: 32.5 °C 20.1 °C 24.9 °C
Dew Point: 23.8 °C 15.4 °C 19.4 °C
Humidity: 91.7% 47.4% 73%
Wind Speed: 5.5km/h 0km/h 0.6km/h
Wind Gust: 20.9km/h - -
Wind- - WSW
Pressure: 1009 hPa 1003.9 hPa -
Precipitation: 11.43 mm    
 
 
Tabular Data for June 19, 2021
Time Temperature Dew Point Pressure Wind Wind Speed Wind Gust Humidity Rainfall Rate (Hourly) solar
00:00 21.4 °C 15.6 °C 1009 hPa Calm   1.6 km/h 69% 0 mm 0 W/m2
00:09 21.4 °C 15.7 °C 1009 hPa Calm     69.9% 0 mm 0 W/m2
00:14 21.3 °C 15.7 °C 1009 hPa Calm   1.6 km/h 70% 0 mm 0 W/m2
00:18 21.3 °C 15.6 °C 1008.7 hPa Calm   1.6 km/h 70% 0 mm 0 W/m2
00:24 21.3 °C 15.6 °C 1008.7 hPa Calm   1.6 km/h 70% 0 mm 0 W/m2
00:29 21.3 °C 15.6 °C 1008.7 hPa Calm   1.6 km/h 70% 0 mm 0 W/m2
00:34 21.3 °C 15.6 °C 1008.7 hPa Calm   1.6 km/h 70% 0 mm 0 W/m2
00:39 21.2 °C 15.6 °C 1008.7 hPa Calm     70% 0 mm 0 W/m2
00:44 21.2 °C 15.5 °C 1008.7 hPa Calm     70% 0 mm 0 W/m2
00:49 21.1 °C 15.4 °C 1008.7 hPa Calm     70% 0 mm 0 W/m2
00:54 21.1 °C 15.6 °C 1008.7 hPa Calm     70.8% 0 mm 0 W/m2
00:59 21 °C 15.6 °C 1008.7 hPa SW 0.2 km/h 3.2 km/h 71% 0 mm 0 W/m2
01:04 20.9 °C 15.5 °C 1008.7 hPa Calm   3.2 km/h 71% 0 mm 0 W/m2
01:09 20.9 °C 15.6 °C 1008.7 hPa Calm     71.4% 0 mm 0 W/m2
01:14 20.9 °C 15.7 °C 1008.7 hPa Calm     72% 0 mm 0 W/m2
01:19 20.9 °C 15.7 °C 1009 hPa Calm     72% 0 mm 0 W/m2
01:24 20.8 °C 15.8 °C 1009 hPa SW 0.2 km/h 4.8 km/h 72.7% 0 mm 0 W/m2
01:29 20.8 °C 15.8 °C 1008.7 hPa Calm   4.8 km/h 73% 0 mm 0 W/m2
01:34 20.8 °C 15.8 °C 1008.7 hPa Calm   4.8 km/h 73% 0 mm 0 W/m2
01:39 20.8 °C 15.9 °C 1008.7 hPa Calm     73.9% 0 mm 0 W/m2
01:44 20.8 °C 16 °C 1008.7 hPa Calm     74% 0 mm 0 W/m2
01:49 20.8 °C 16 °C 1008.7 hPa Calm     74% 0 mm 0 W/m2
01:54 20.8 °C 16.1 °C 1008.7 hPa Calm     74.5% 0 mm 0 W/m2
01:59 20.8 °C 16.1 °C 1008.4 hPa SW 0.5 km/h 8 km/h 74.3% 0 mm 0 W/m2
02:04 20.8 °C 16.1 °C 1008.4 hPa Calm   8 km/h 74% 0 mm 0 W/m2
02:09 20.9 °C 16.1 °C 1008.4 hPa SW 0.3 km/h 4.8 km/h 74% 0 mm 0 W/m2
02:14 20.9 °C 16.2 °C 1008.4 hPa Calm   4.8 km/h 74% 0 mm 0 W/m2
02:19 20.9 °C 16.2 °C 1008.4 hPa Calm   4.8 km/h 74.4% 0 mm 0 W/m2
02:24 20.9 °C 16.3 °C 1008.4 hPa Calm   4.8 km/h 75% 0 mm 0 W/m2
02:29 20.9 °C 16.3 °C 1008 hPa Calm   4.8 km/h 75% 0 mm 0 W/m2
02:34 20.8 °C 16.2 °C 1008 hPa Calm   4.8 km/h 75% 0 mm 0 W/m2
02:39 20.8 °C 16.2 °C 1008 hPa Calm     75% 0 mm 0 W/m2
02:44 20.8 °C 16.2 °C 1008 hPa SW 0.2 km/h 4.8 km/h 75% 0 mm 0 W/m2
02:49 20.8 °C 16.3 °C 1007.7 hPa Calm   4.8 km/h 75.2% 0 mm 0 W/m2
02:54 20.8 °C 16.6 °C 1007.7 hPa Calm   4.8 km/h 76.9% 0 mm 0 W/m2
02:59 20.8 °C 16.9 °C 1007.7 hPa SW 0.2 km/h 6.4 km/h 78.7% 0 mm 0 W/m2
03:04 20.7 °C 16.9 °C 1007.7 hPa Calm   6.4 km/h 79% 0 mm 0 W/m2
03:09 20.5 °C 16.9 °C 1007.7 hPa SW 0.5 km/h 6.4 km/h 80% 0 mm 0 W/m2
03:14 20.4 °C 17 °C 1007.7 hPa SSW 0.3 km/h 8 km/h 80.9% 0 mm 0 W/m2
03:19 20.3 °C 16.9 °C 1007.7 hPa Calm   8 km/h 81% 0 mm 0 W/m2
03:24 20.2 °C 16.8 °C 1007.7 hPa Calm   8 km/h 81% 0 mm 0 W/m2
03:29 20.2 °C 16.9 °C 1007.3 hPa Calm   8 km/h 81.7% 0 mm 0 W/m2
03:34 20.2 °C 17 °C 1007.3 hPa SSW 1.1 km/h 9.7 km/h 82% 0 mm 0 W/m2
03:39 20.1 °C 16.9 °C 1007.3 hPa Calm   9.7 km/h 81.9% 0 mm 0 W/m2
03:44 20.1 °C 16.8 °C 1007.3 hPa SW 0.3 km/h 9.7 km/h 81% 0 mm 0 W/m2
03:49 20.1 °C 16.8 °C 1007.3 hPa SW 0.2 km/h 9.7 km/h 81% 0 mm 0 W/m2
03:54 20.1 °C 16.8 °C 1007 hPa Calm   9.7 km/h 81% 0 mm 0 W/m2
03:59 20.1 °C 16.7 °C 1007 hPa SW 0.8 km/h 11.3 km/h 80.5% 0 mm 0 W/m2
04:00 20.2 °C 16.8 °C 1007 hPa Calm   11.3 km/h 81% 0 mm 0 W/m2
04:09 20.2 °C 16.6 °C 1007 hPa SW 0.3 km/h 4.8 km/h 80% 0 mm 0 W/m2
04:14 20.2 °C 16.7 °C 1007 hPa SW 0.2 km/h 4.8 km/h 80% 0 mm 0 W/m2
04:19 20.2 °C 16.7 °C 1007 hPa Calm   4.8 km/h 80% 0 mm 0 W/m2
04:24 20.2 °C 16.7 °C 1007 hPa Calm   4.8 km/h 80% 0 mm 0 W/m2
04:29 20.2 °C 16.7 °C 1007 hPa Calm   4.8 km/h 80% 0 mm 0 W/m2
04:34 20.2 °C 16.7 °C 1007 hPa Calm   4.8 km/h 80% 0 mm 0 W/m2
04:39 20.2 °C 16.7 °C 1006.7 hPa Calm     80% 0 mm 0 W/m2
04:44 20.2 °C 16.7 °C 1006.7 hPa Calm   1.6 km/h 80% 0 mm 0 W/m2
04:49 20.2 °C 16.6 °C 1006.7 hPa Calm   1.6 km/h 80% 0 mm 0 W/m2
04:54 20.2 °C 16.6 °C 1006.7 hPa SW 0.3 km/h 6.4 km/h 80% 0 mm 0 W/m2
04:59 20.2 °C 16.7 °C 1006.7 hPa Calm   6.4 km/h 80% 0 mm 0 W/m2
05:04 20.2 °C 16.7 °C 1006.3 hPa Calm   6.4 km/h 80% 0 mm 0 W/m2
05:09 20.2 °C 16.7 °C 1006.7 hPa Calm   3.2 km/h 80% 0 mm 0 W/m2
05:14 20.2 °C 16.7 °C 1006.7 hPa Calm   3.2 km/h 80% 0 mm 0 W/m2
05:19 20.2 °C 16.6 °C 1006.3 hPa SW 0.2 km/h 4.8 km/h 79.9% 0 mm 0 W/m2
05:24 20.2 °C 16.7 °C 1006.3 hPa Calm   4.8 km/h 79.9% 0 mm 0 W/m2
05:29 20.2 °C 16.5 °C 1006.3 hPa Calm   4.8 km/h 79.3% 0 mm 7 W/m2
05:34 20.2 °C 16.6 °C 1006.7 hPa Calm   4.8 km/h 79.5% 0 mm 9 W/m2
05:39 20.2 °C 16.5 °C 1006.3 hPa Calm     79% 0 mm 11 W/m2
05:44 20.2 °C 16.6 °C 1006.3 hPa Calm     79.8% 0 mm 11 W/m2
05:49 20.2 °C 16.5 °C 1006.3 hPa Calm     79.2% 0 mm 16 W/m2
05:54 20.2 °C 16.5 °C 1006.3 hPa Calm     79% 0 mm 18 W/m2
05:59 20.3 °C 16.5 °C 1006.3 hPa Calm     79% 0 mm 18 W/m2
06:04 20.3 °C 16.6 °C 1006.3 hPa Calm     79% 0 mm 16 W/m2
06:09 20.3 °C 16.6 °C 1006.3 hPa Calm     78.8% 0 mm 16 W/m2
06:14 20.4 °C 16.5 °C 1006 hPa Calm     78.4% 0 mm 28 W/m2
06:19 20.4 °C 16.6 °C 1006 hPa Calm     78.5% 0 mm 37 W/m2
06:24 20.4 °C 16.7 °C 1006 hPa Calm     79% 0 mm 42 W/m2
06:29 20.4 °C 16.8 °C 1006 hPa Calm   1.6 km/h 79.3% 0 mm 44 W/m2
06:34 20.5 °C 16.7 °C 1006 hPa Calm   1.6 km/h 79% 0 mm 42 W/m2
06:39 20.5 °C 16.8 °C 1006 hPa SW 0.2 km/h 1.6 km/h 79% 0 mm 47 W/m2
06:44 20.6 °C 16.8 °C 1006 hPa Calm   1.6 km/h 79% 0 mm 65 W/m2
06:49 20.6 °C 16.8 °C 1006 hPa Calm   1.6 km/h 79% 0 mm 69 W/m2
06:54 20.6 °C 17.1 °C 1006 hPa Calm   1.6 km/h 79.9% 0 mm 102 W/m2
06:59 20.8 °C 17.2 °C 1006 hPa Calm   1.6 km/h 80% 0 mm 130 W/m2
07:04 21 °C 17.4 °C 1006.3 hPa SW 0.2 km/h 4.8 km/h 79.9% 0 mm 134 W/m2
07:09 21.3 °C 17.5 °C 1006.3 hPa SW 0.2 km/h 4.8 km/h 78.7% 0 mm 123 W/m2
07:14 21.6 °C 17.4 °C 1006.3 hPa Calm   4.8 km/h 77.1% 0 mm 90 W/m2
07:19 21.8 °C 17.6 °C 1006.3 hPa SW 0.2 km/h 4.8 km/h 77% 0 mm 90 W/m2
07:24 22.1 °C 17.8 °C 1006.3 hPa SW 0.3 km/h 8 km/h 77% 0 mm 199 W/m2
07:29 22.3 °C 17.9 °C 1006.3 hPa SW 0.5 km/h 8 km/h 75.9% 0 mm 283 W/m2
07:30 22.4 °C 17.8 °C 1006.3 hPa Calm   8 km/h 75% 0 mm 283 W/m2
08:09 24 °C 18.4 °C 1006 hPa SW 0.2 km/h 3.2 km/h 70.8% 0 mm 422 W/m2
08:14 24.2 °C 18.5 °C 1006 hPa Calm   3.2 km/h 70.8% 0 mm 443 W/m2
08:19 24.3 °C 18.7 °C 1006 hPa Calm   3.2 km/h 71% 0 mm 468 W/m2
08:24 24.5 °C 18.9 °C 1006.3 hPa SW 0.2 km/h 3.2 km/h 70.8% 0 mm 455 W/m2
08:29 24.7 °C 19.1 °C 1006.3 hPa SW 1.6 km/h 11.3 km/h 70.9% 0 mm 445 W/m2
08:34 24.8 °C 19.2 °C 1006.3 hPa WSW 0.8 km/h 11.3 km/h 70.7% 0 mm 462 W/m2
08:39 25.1 °C 19.4 °C 1006.3 hPa WSW 0.3 km/h 9.7 km/h 71% 0 mm 501 W/m2
08:44 25.3 °C 19.7 °C 1006.3 hPa WSW 1.1 km/h 9.7 km/h 70.8% 0 mm 541 W/m2
08:49 25.5 °C 19.5 °C 1006 hPa WSW 0.2 km/h 9.7 km/h 69.3% 0 mm 529 W/m2
08:54 25.7 °C 19.6 °C 1006 hPa WSW 0.6 km/h 9.7 km/h 69.3% 0 mm 571 W/m2
08:59 25.8 °C 19.8 °C 1006 hPa WSW 0.2 km/h 9.7 km/h 69.4% 0 mm 599 W/m2
09:04 26.1 °C 20.1 °C 1006 hPa Calm   9.7 km/h 69.2% 0 mm 629 W/m2
09:09 26.5 °C 20 °C 1006 hPa WSW 0.2 km/h 4.8 km/h 67.5% 0 mm 636 W/m2
09:14 26.8 °C 20 °C 1006 hPa Calm   4.8 km/h 66.5% 0 mm 657 W/m2
09:19 27.1 °C 20.5 °C 1006 hPa WSW 1.1 km/h 8 km/h 67.4% 0 mm 694 W/m2
09:24 27.3 °C 20.2 °C 1006 hPa WSW 0.5 km/h 8 km/h 65.4% 0 mm 635 W/m2
09:29 27.4 °C 20.4 °C 1006 hPa WSW 0.6 km/h 9.7 km/h 65.4% 0 mm 684 W/m2
09:34 27.6 °C 20.4 °C 1006 hPa WSW 0.2 km/h 9.7 km/h 65% 0 mm 666 W/m2
09:39 27.7 °C 20.3 °C 1006 hPa Calm   4.8 km/h 63.9% 0 mm 670 W/m2
09:44 27.8 °C 20.6 °C 1005.6 hPa Calm   4.8 km/h 64.6% 0 mm 700 W/m2
09:49 28 °C 20.5 °C 1005.6 hPa WSW 0.6 km/h 16.1 km/h 63.7% 0 mm 786 W/m2
09:54 28.2 °C 20.4 °C 1005.6 hPa WSW 0.6 km/h 16.1 km/h 63% 0 mm 795 W/m2
09:59 28.3 °C 20.6 °C 1005.6 hPa WSW 1.1 km/h 16.1 km/h 63.1% 0 mm 772 W/m2
10:04 28.6 °C 20.9 °C 1005.6 hPa WSW 1 km/h 16.1 km/h 63.3% 0 mm 816 W/m2
10:09 28.8 °C 20.8 °C 1006 hPa WSW 0.3 km/h 9.7 km/h 62% 0 mm 816 W/m2
10:14 29 °C 20.9 °C 1006 hPa WSW 1.4 km/h 11.3 km/h 61.9% 0 mm 694 W/m2
10:19 29.1 °C 21.1 °C 1005.6 hPa WSW 1.6 km/h 11.3 km/h 62% 0 mm 724 W/m2
10:24 29.2 °C 21.2 °C 1005.6 hPa WSW 1.8 km/h 11.3 km/h 61.8% 0 mm 793 W/m2
10:29 29.4 °C 21.1 °C 1005.6 hPa WSW 0.2 km/h 11.3 km/h 61% 0 mm 814 W/m2
10:34 29.5 °C 21.2 °C 1005.6 hPa WSW 1.3 km/h 11.3 km/h 61.1% 0 mm 814 W/m2
10:39 29.7 °C 21.3 °C 1005.6 hPa WSW 1.1 km/h 9.7 km/h 61% 0 mm 828 W/m2
10:44 29.8 °C 21.2 °C 1005.6 hPa WSW 1 km/h 9.7 km/h 60% 0 mm 837 W/m2
10:49 29.9 °C 21.4 °C 1005.6 hPa WSW 1 km/h 9.7 km/h 60.3% 0 mm 849 W/m2
10:54 30.2 °C 21.8 °C 1005.6 hPa WSW 0.2 km/h 9.7 km/h 60.9% 0 mm 861 W/m2
10:59 30.4 °C 21.1 °C 1005.3 hPa WSW 1.8 km/h 9.7 km/h 57.5% 0 mm 868 W/m2
11:03 30.5 °C 21.4 °C 1005.3 hPa WSW 0.3 km/h 9.7 km/h 58.4% 0 mm 856 W/m2
11:30 31.8 °C 21.6 °C 1005.3 hPa WSW 1.6 km/h 8 km/h 55% 0 mm 846 W/m2
12:09 32.3 °C 21.8 °C 1005.3 hPa West 3.2 km/h 11.3 km/h 53.8% 0 mm 1051 W/m2
12:14 32.3 °C 21.7 °C 1005 hPa WNW 1 km/h 11.3 km/h 53.5% 0 mm 1051 W/m2
12:19 32.3 °C 21.7 °C 1005 hPa West 4.3 km/h 12.9 km/h 53.4% 0 mm 1065 W/m2
12:24 32.3 °C 21.8 °C 1005 hPa West 1.4 km/h 12.9 km/h 54.2% 0 mm 1044 W/m2
12:29 32.2 °C 21.6 °C 1005.3 hPa West 2.1 km/h 12.9 km/h 53.8% 0 mm 1021 W/m2
12:34 32.1 °C 21.3 °C 1005.3 hPa West 1 km/h 12.9 km/h 53% 0 mm 970 W/m2
12:39 32 °C 21.4 °C 1005.3 hPa West 0.8 km/h 6.4 km/h 53.7% 0 mm 970 W/m2
12:44 31.8 °C 20.8 °C 1005.3 hPa WSW 5.5 km/h 20.9 km/h 52.2% 0 mm 1074 W/m2
12:49 31.6 °C 20.9 °C 1005.3 hPa West 3.1 km/h 20.9 km/h 53.4% 0 mm 1041 W/m2
12:54 31.7 °C 21.3 °C 1005.3 hPa West 1.9 km/h 20.9 km/h 54.2% 0 mm 963 W/m2
12:59 31.8 °C 21.7 °C 1005.3 hPa West 0.6 km/h 20.9 km/h 55.1% 0 mm 606 W/m2
13:04 31.9 °C 21.4 °C 1005.3 hPa West 1.9 km/h 20.9 km/h 53.7% 0 mm 575 W/m2
13:09 31.8 °C 20.8 °C 1005.3 hPa WNW 4.5 km/h 14.5 km/h 52.2% 0 mm 299 W/m2
13:14 31.7 °C 21.4 °C 1005.3 hPa Calm   14.5 km/h 54.4% 0 mm 744 W/m2
13:19 31.7 °C 21.7 °C 1005.3 hPa West 1.9 km/h 14.5 km/h 55.7% 0 mm 1002 W/m2
13:24 31.7 °C 21.3 °C 1005 hPa WSW 1.8 km/h 14.5 km/h 54.1% 0 mm 1002 W/m2
13:29 31.9 °C 21.5 °C 1005 hPa West 2.3 km/h 14.5 km/h 54.1% 0 mm 1034 W/m2
13:34 32.2 °C 21.6 °C 1005.3 hPa WSW 1.8 km/h 14.5 km/h 53.7% 0 mm 1039 W/m2
13:39 32.4 °C 21.4 °C 1005 hPa WSW 0.2 km/h 9.7 km/h 52.4% 0 mm 1039 W/m2
13:44 32.5 °C 20.8 °C 1005 hPa WNW 3.1 km/h 9.7 km/h 50.3% 0 mm 1041 W/m2
13:49 32.4 °C 20.7 °C 1005 hPa West 3.5 km/h 12.9 km/h 50% 0 mm 1041 W/m2
13:54 32.5 °C 21.1 °C 1005 hPa WNW 1.9 km/h 12.9 km/h 50.9% 0 mm 1028 W/m2
13:59 32.4 °C 20.5 °C 1005 hPa West 1.8 km/h 12.9 km/h 49.6% 0 mm 241 W/m2
14:04 32.2 °C 20.4 °C 1005 hPa West 1.1 km/h 12.9 km/h 49.7% 0 mm 933 W/m2
14:09 32.2 °C 20.7 °C 1005 hPa WSW 2.3 km/h 11.3 km/h 50.8% 0 mm 933 W/m2
14:14 32.1 °C 20.4 °C 1005 hPa West 1.8 km/h 11.3 km/h 50% 0 mm 207 W/m2
14:19 32.1 °C 20.3 °C 1005 hPa WSW 4.8 km/h 11.3 km/h 49.7% 0 mm 867 W/m2
14:24 32.2 °C 20.3 °C 1005 hPa SW 2.4 km/h 11.3 km/h 49.5% 0 mm 867 W/m2
14:29 32.3 °C 20.3 °C 1005 hPa West 3.7 km/h 14.5 km/h 49.1% 0 mm 842 W/m2
14:34 32.4 °C 20.4 °C 1005 hPa West 1.4 km/h 14.5 km/h 49.3% 0 mm 719 W/m2
14:39 32.4 °C 20.1 °C 1005 hPa WNW 3.9 km/h 11.3 km/h 48.4% 0 mm 209 W/m2
14:44 32.2 °C 20.4 °C 1005 hPa West 4.5 km/h 11.3 km/h 49.6% 0 mm 775 W/m2
14:49 32.2 °C 19.9 °C 1004.6 hPa WSW 5 km/h 12.9 km/h 48.3% 0 mm 775 W/m2
14:54 32.2 °C 19.6 °C 1004.6 hPa WNW 3.9 km/h 14.5 km/h 47.4% 0 mm 364 W/m2
14:59 32.1 °C 19.8 °C 1005 hPa WNW 2.1 km/h 14.5 km/h 48.5% 0 mm 399 W/m2
15:04 31.9 °C 20.2 °C 1004.6 hPa West 4.3 km/h 14.5 km/h 49.8% 0 mm 399 W/m2
15:09 31.9 °C 19.9 °C 1004.6 hPa West 1.4 km/h 11.3 km/h 49.3% 0 mm 373 W/m2
15:14 31.9 °C 20.3 °C 1004.6 hPa West 3.5 km/h 11.3 km/h 50.5% 0 mm 230 W/m2
15:19 31.8 °C 20.4 °C 1004.6 hPa West 1.9 km/h 11.3 km/h 51% 0 mm 213 W/m2
15:24 31.7 °C 20.4 °C 1004.6 hPa West 2.1 km/h 11.3 km/h 51.3% 0 mm 134 W/m2
15:29 31.4 °C 20.1 °C 1004.6 hPa WNW 1.8 km/h 16.1 km/h 51% 0 mm 90 W/m2
15:34 31.2 °C 20.2 °C 1004.6 hPa WNW 0.5 km/h 16.1 km/h 52.2% 0 mm 97 W/m2
15:39 30.9 °C 19.8 °C 1004.6 hPa WNW 3.7 km/h 9.7 km/h 51.7% 0 mm 95 W/m2
15:44 30.6 °C 19.4 °C 1004.6 hPa NW 2.6 km/h 14.5 km/h 51.2% 0 mm 67 W/m2
15:49 30.3 °C 19.6 °C 1004.6 hPa NW 2.7 km/h 14.5 km/h 52.8% 0 mm 44 W/m2
15:54 30 °C 19.9 °C 1004.6 hPa WNW 3.7 km/h 14.5 km/h 54.9% 0 mm 53 W/m2
15:59 29.6 °C 20.4 °C 1004.6 hPa NW 3.9 km/h 16.1 km/h 57.7% 0 mm 83 W/m2
16:00 29.4 °C 20.6 °C 1004.6 hPa Calm   16.1 km/h 59% 0 mm 83 W/m2
16:09 28.9 °C 21.3 °C 1005 hPa NW 3.2 km/h 9.7 km/h 63.7% 0.76 mm 95 W/m2
16:14 28.5 °C 22.3 °C 1005.3 hPa NW 2.3 km/h 9.7 km/h 69.1% 2.54 mm 39 W/m2
16:19 27.8 °C 22.3 °C 1005.3 hPa WNW 0.3 km/h 9.7 km/h 72% 7.11 mm 44 W/m2
16:24 26.9 °C 21.8 °C 1005 hPa WNW 0.2 km/h 9.7 km/h 73.8% 8.89 mm 39 W/m2
16:29 25.9 °C 21.2 °C 1004.6 hPa Calm   9.7 km/h 75.1% 9.4 mm 39 W/m2
16:34 25 °C 20.8 °C 1004.6 hPa WNW 0.3 km/h 9.7 km/h 77.8% 9.65 mm 51 W/m2
16:39 24.4 °C 20.8 °C 1004.3 hPa WNW 0.2 km/h 4.8 km/h 80.5% 9.65 mm 121 W/m2
16:44 23.9 °C 20.7 °C 1004.3 hPa Calm   4.8 km/h 82.1% 9.65 mm 135 W/m2
16:49 23.8 °C 21.3 °C 1004.3 hPa Calm   4.8 km/h 86.1% 9.65 mm 125 W/m2
16:54 23.7 °C 21.1 °C 1004.6 hPa Calm   4.8 km/h 85.7% 9.65 mm 121 W/m2
16:59 23.6 °C 21.3 °C 1004.6 hPa WNW 0.2 km/h 4.8 km/h 87.2% 9.65 mm 128 W/m2
17:04 23.7 °C 21.6 °C 1004.6 hPa Calm   4.8 km/h 88% 9.65 mm 120 W/m2
17:09 23.7 °C 21.7 °C 1004.6 hPa Calm     88.5% 0.25 mm 98 W/m2
17:14 23.7 °C 21.8 °C 1004.3 hPa Calm     89% 0.25 mm 109 W/m2
17:19 23.9 °C 22.1 °C 1004.3 hPa Calm     90% 0.25 mm 121 W/m2
17:24 23.9 °C 22.2 °C 1004.3 hPa Calm     90% 0.25 mm 135 W/m2
17:29 24.1 °C 22.3 °C 1004.3 hPa Calm     90% 0.25 mm 137 W/m2
17:34 24.1 °C 22.3 °C 1004.3 hPa Calm     89.5% 0.25 mm 123 W/m2
17:39 24.2 °C 22.4 °C 1004.3 hPa Calm     90% 0.25 mm 116 W/m2
17:44 24.3 °C 22.6 °C 1004.3 hPa Calm     90% 0.25 mm 98 W/m2
17:48 24.4 °C 22.7 °C 1003.9 hPa Calm     90% 0.25 mm 90 W/m2
17:54 24.6 °C 22.8 °C 1004.3 hPa Calm     90% 0.25 mm 111 W/m2
17:59 24.7 °C 22.9 °C 1004.3 hPa Calm     90% 0.25 mm 104 W/m2
18:04 24.8 °C 23 °C 1003.9 hPa Calm     90% 0.25 mm 81 W/m2
18:09 24.8 °C 23.1 °C 1003.9 hPa Calm     90% 0 mm 67 W/m2
18:14 24.9 °C 23.1 °C 1003.9 hPa Calm     90% 0 mm 70 W/m2
18:19 24.9 °C 23.2 °C 1003.9 hPa Calm     90% 0 mm 86 W/m2
18:24 24.9 °C 23.2 °C 1004.3 hPa Calm     90% 0 mm 91 W/m2
18:29 25.1 °C 23.3 °C 1004.3 hPa Calm     90.1% 0 mm 84 W/m2
18:34 25.2 °C 23.6 °C 1004.3 hPa Calm     91% 0 mm 42 W/m2
18:39 25.3 °C 23.7 °C 1004.3 hPa Calm     91% 0 mm 32 W/m2
18:44 25.3 °C 23.6 °C 1004.6 hPa Calm     90.3% 0 mm 23 W/m2
18:49 25.2 °C 23.4 °C 1004.6 hPa Calm   1.6 km/h 90% 0 mm 23 W/m2
18:54 25.2 °C 23.4 °C 1004.6 hPa Calm   1.6 km/h 90% 0 mm 18 W/m2
18:59 25.2 °C 23.4 °C 1004.6 hPa Calm   1.6 km/h 90% 0 mm 25 W/m2
19:04 25.2 °C 23.4 °C 1004.6 hPa Calm   1.6 km/h 90% 0 mm 28 W/m2
19:09 25.2 °C 23.4 °C 1004.6 hPa Calm     90% 0 mm 30 W/m2
19:14 25.2 °C 23.6 °C 1005 hPa Calm     90.8% 0 mm 28 W/m2
19:19 25.2 °C 23.7 °C 1005 hPa Calm     91% 0 mm 26 W/m2
19:24 25.3 °C 23.7 °C 1005 hPa Calm     91% 0 mm 21 W/m2
19:29 25.3 °C 23.8 °C 1005 hPa Calm     91% 0 mm 18 W/m2
19:34 25.3 °C 23.8 °C 1005 hPa Calm     91% 0 mm 12 W/m2
19:39 25.3 °C 23.8 °C 1005 hPa Calm     91% 0 mm 5 W/m2
19:44 25.3 °C 23.8 °C 1005 hPa Calm     91% 0 mm 14 W/m2
19:49 25.3 °C 23.7 °C 1005 hPa Calm     91% 0 mm 16 W/m2
19:54 25.3 °C 23.7 °C 1005 hPa Calm     91% 0 mm 9 W/m2
19:59 25.2 °C 23.7 °C 1005 hPa Calm     91% 0 mm 5 W/m2
20:00 25.2 °C 23.6 °C 1004.6 hPa Calm     91% 0 mm 0 W/m2
20:09 25.1 °C 23.6 °C 1005 hPa Calm     91% 0 mm 0 W/m2
20:14 25.1 °C 23.6 °C 1005 hPa Calm     91.5% 0.25 mm 0 W/m2
20:19 25 °C 23.4 °C 1005 hPa Calm     91% 0.25 mm 0 W/m2
20:24 24.9 °C 23.3 °C 1005.3 hPa Calm     91% 0.25 mm 0 W/m2
20:28 24.8 °C 23.2 °C 1005.6 hPa Calm     91% 0.25 mm 0 W/m2
20:34 24.7 °C 23.2 °C 1006 hPa Calm     91% 0.25 mm 0 W/m2
20:39 24.7 °C 23.2 °C 1006 hPa NW 3.2 km/h 20.9 km/h 91.7% 0.76 mm 0 W/m2
20:44 24 °C 21.3 °C 1006.3 hPa WNW 2.3 km/h 20.9 km/h 84.9% 0.76 mm 0 W/m2
20:49 23.4 °C 20.2 °C 1006.3 hPa SW 0.2 km/h 20.9 km/h 82.3% 1.02 mm 0 W/m2
20:54 22.9 °C 19.9 °C 1006.3 hPa Calm   20.9 km/h 82.8% 1.78 mm 0 W/m2
20:59 22.5 °C 19.3 °C 1006.3 hPa Calm   20.9 km/h 82.4% 1.78 mm 0 W/m2
21:04 22.1 °C 19.1 °C 1006.3 hPa Calm   20.9 km/h 83.4% 1.78 mm 0 W/m2
21:09 21.7 °C 19.1 °C 1006.3 hPa Calm   1.6 km/h 85% 1.78 mm 0 W/m2
21:14 21.3 °C 18.7 °C 1006.7 hPa Calm   1.6 km/h 85% 1.78 mm 0 W/m2
21:19 20.9 °C 18.3 °C 1006.7 hPa Calm   1.6 km/h 85% 1.78 mm 0 W/m2
21:24 20.7 °C 18.2 °C 1006.7 hPa Calm   1.6 km/h 86% 1.78 mm 0 W/m2
21:29 20.4 °C 18.1 °C 1007 hPa SSW 0.2 km/h 3.2 km/h 86.6% 1.78 mm 0 W/m2
21:33 20.2 °C 18 °C 1007 hPa Calm   3.2 km/h 87.2% 1.78 mm 0 W/m2
Hartford County Weather
Compliments of Weather Underground - 4 mb